Breckenridge, Illinois
Current Conditions -  °F | °C
As of 8:52 PM on Tuesday 25 Nov 2014 (Local Time) from KSPI Reporting Station
Clear Clear  
Wind Chill: 17°   Ceiling: Unl
Heat Index: 25°   Visibility: 10mi
Dew Point: 22°   Wind: 7mph
Humidity: 88%   Direction: 120°ESE
Pressure: 30.19"   Gusts: NA
Location:  39.7312°N, 89.5322°W
Report Text: KSPI 260252Z 12006KT 10SM CLR M04/M06 A3019 RMK AO2 SLP229 T10391056 51006
Loading
Personal Weather Stations






























Interactive Weather Map New forecast layout! Learn more

10-Day Weather Forecast

Advertisements
Track Severe Weather on mobile